PROFILE

 METAR AND TAF INFORMATION
ADDS - METARS form results

(2059 UTC 18 February 2019)
http://aviationweather.gov/metar/data/
 
TJBQ 182050Z 09017G23KT 10SM CLR 27/ A3009
TJBQ 181739Z 1818/1918 07018G25KT P6SM FEW030 FM182300 10011KT P6SM FEW035 SCT050 FM191400 09016G22KT P6SM SCT030 AMD NOT SKED 1902/1911 

 AIRPORT MAP

 RUNWAY INFORMATION
Runway 08 Runway length 11702 ft Runway width 200 ft
Runway elevation 237 ft Runway displaced threshold 0 ft Runway heading 72
Runway 26 Runway length 11702 ft Runway width 200 ft
Runway elevation 194 ft Runway displaced threshold 0 ft Runway heading 252

 AIRPORT FREQUENCIES
Type A/D Name SAN JUAN C Frequency 135.7 MHZ
Type MISC Name AIR CG Frequency 34.5 MHZ
Type RDO Name SAN JUAN R Frequency 113.5 MHZ
Type UNIC Name CTAF/UNICO Frequency 123 MHZ

 AIRPORT NEAR NAVIGATION AIDS
Type VORTAC Name Borinquen Frequency 113500 KHZ